Current Weather

Al Kharj

Al Kharj, Saudi Arabia (OEKJ)

Report from: Tuesday, March 5, 2024 1:00 AM UTC
Current time: Tuesday, March 5, 2024 2:00 AM UTC

Nearby weather – Weather history – Daily summaries
Weather forecast

Temperature15.0°C (59.0°F)
Dew point-4.0°C (24.8°F)
Winds 4 kts (2.1 m/s, 4.6 mph) East (80°)
Clouds Sky clear
Altimeter29.97 in.Hg (1015 mB)
Relative humidity27 %
Density altitude16 ft. (5 m)
Remarks Ceiling and visibility OK
Flight conditions Visual Meteorological Conditions
Raw dataOEKJ 050100Z 08004KT CAVOK 15/M04 Q1015
An error has occurred. This application may no longer respond until reloaded. Reload 🗙